sensor_id;sensor_type;location;lat;lon;timestamp;P1;durP1;ratioP1;P2;durP2;ratioP2
16969;SDS011;8601;48.718;8.992;2022-08-01T00:01:33;3.47;;;2.00;;
16969;SDS011;8601;48.718;8.992;2022-08-01T00:04:02;2.00;;;1.90;;
16969;SDS011;8601;48.718;8.992;2022-08-01T00:06:29;2.20;;;1.80;;
16969;SDS011;8601;48.718;8.992;2022-08-01T00:08:57;2.20;;;2.00;;
16969;SDS011;8601;48.718;8.992;2022-08-01T00:11:24;1.80;;;1.70;;
16969;SDS011;8601;48.718;8.992;2022-08-01T00:13:52;3.43;;;2.00;;
16969;SDS011;8601;48.718;8.992;2022-08-01T00:16:19;2.00;;;1.90;;
16969;SDS011;8601;48.718;8.992;2022-08-01T00:18:47;2.00;;;1.90;;
16969;SDS011;8601;48.718;8.992;2022-08-01T00:21:16;2.67;;;1.90;;
16969;SDS011;8601;48.718;8.992;2022-08-01T00:23:44;2.27;;;2.07;;
16969;SDS011;8601;48.718;8.992;2022-08-01T00:26:12;2.23;;;2.00;;
16969;SDS011;8601;48.718;8.992;2022-08-01T00:28:40;2.13;;;1.93;;
16969;SDS011;8601;48.718;8.992;2022-08-01T00:31:07;4.23;;;2.23;;
16969;SDS011;8601;48.718;8.992;2022-08-01T00:33:35;2.80;;;2.20;;
16969;SDS011;8601;48.718;8.992;2022-08-01T00:36:02;3.13;;;2.13;;
16969;SDS011;8601;48.718;8.992;2022-08-01T00:38:30;2.70;;;2.03;;
16969;SDS011;8601;48.718;8.992;2022-08-01T00:40:58;2.40;;;2.20;;
16969;SDS011;8601;48.718;8.992;2022-08-01T00:43:25;3.23;;;2.23;;
16969;SDS011;8601;48.718;8.992;2022-08-01T00:45:52;2.97;;;2.23;;
16969;SDS011;8601;48.718;8.992;2022-08-01T00:48:19;3.30;;;2.47;;
16969;SDS011;8601;48.718;8.992;2022-08-01T00:50:46;2.13;;;1.80;;
16969;SDS011;8601;48.718;8.992;2022-08-01T00:53:13;2.00;;;1.90;;
16969;SDS011;8601;48.718;8.992;2022-08-01T00:55:42;2.73;;;2.07;;
16969;SDS011;8601;48.718;8.992;2022-08-01T00:58:09;2.30;;;2.10;;
16969;SDS011;8601;48.718;8.992;2022-08-01T01:00:36;2.00;;;1.90;;
16969;SDS011;8601;48.718;8.992;2022-08-01T01:03:03;2.63;;;2.30;;
16969;SDS011;8601;48.718;8.992;2022-08-01T01:05:30;2.50;;;2.10;;
16969;SDS011;8601;48.718;8.992;2022-08-01T01:08:07;2.63;;;2.40;;
16969;SDS011;8601;48.718;8.992;2022-08-01T01:10:40;4.13;;;2.20;;
16969;SDS011;8601;48.718;8.992;2022-08-01T01:13:16;2.90;;;2.17;;
16969;SDS011;8601;48.718;8.992;2022-08-01T01:15:50;3.10;;;2.30;;
16969;SDS011;8601;48.718;8.992;2022-08-01T01:18:23;2.70;;;2.50;;
16969;SDS011;8601;48.718;8.992;2022-08-01T01:20:57;2.33;;;1.70;;
16969;SDS011;8601;48.718;8.992;2022-08-01T01:23:38;3.37;;;2.30;;
16969;SDS011;8601;48.718;8.992;2022-08-01T01:26:17;2.60;;;2.17;;
16969;SDS011;8601;48.718;8.992;2022-08-01T01:31:42;2.40;;;2.20;;
16969;SDS011;8601;48.718;8.992;2022-08-01T01:34:15;2.77;;;2.40;;
16969;SDS011;8601;48.718;8.992;2022-08-01T01:36:44;2.83;;;2.30;;
16969;SDS011;8601;48.718;8.992;2022-08-01T01:39:14;3.23;;;2.50;;
16969;SDS011;8601;48.718;8.992;2022-08-01T01:41:42;3.90;;;2.30;;
16969;SDS011;8601;48.718;8.992;2022-08-01T01:44:13;2.50;;;2.30;;
16969;SDS011;8601;48.718;8.992;2022-08-01T01:46:43;2.30;;;2.10;;
16969;SDS011;8601;48.718;8.992;2022-08-01T01:49:11;2.63;;;2.27;;
16969;SDS011;8601;48.718;8.992;2022-08-01T01:51:38;2.83;;;2.60;;
16969;SDS011;8601;48.718;8.992;2022-08-01T01:54:08;2.50;;;2.30;;
16969;SDS011;8601;48.718;8.992;2022-08-01T01:56:36;2.87;;;2.67;;
16969;SDS011;8601;48.718;8.992;2022-08-01T01:59:15;2.60;;;2.40;;
16969;SDS011;8601;48.718;8.992;2022-08-01T02:01:46;2.50;;;2.30;;
16969;SDS011;8601;48.718;8.992;2022-08-01T02:04:14;3.10;;;2.67;;
16969;SDS011;8601;48.718;8.992;2022-08-01T02:06:43;4.60;;;2.40;;
16969;SDS011;8601;48.718;8.992;2022-08-01T02:09:14;2.90;;;2.70;;
16969;SDS011;8601;48.718;8.992;2022-08-01T02:11:42;3.07;;;2.50;;
16969;SDS011;8601;48.718;8.992;2022-08-01T02:14:10;3.70;;;2.53;;
16969;SDS011;8601;48.718;8.992;2022-08-01T02:16:40;3.57;;;2.50;;
16969;SDS011;8601;48.718;8.992;2022-08-01T02:19:10;2.87;;;2.50;;
16969;SDS011;8601;48.718;8.992;2022-08-01T02:21:39;2.70;;;2.50;;
16969;SDS011;8601;48.718;8.992;2022-08-01T02:24:12;3.23;;;2.30;;
16969;SDS011;8601;48.718;8.992;2022-08-01T02:26:41;2.80;;;2.60;;
16969;SDS011;8601;48.718;8.992;2022-08-01T02:29:18;3.00;;;2.70;;
16969;SDS011;8601;48.718;8.992;2022-08-01T02:31:50;3.67;;;2.70;;
16969;SDS011;8601;48.718;8.992;2022-08-01T02:34:20;3.33;;;3.03;;
16969;SDS011;8601;48.718;8.992;2022-08-01T02:36:51;3.00;;;2.60;;
16969;SDS011;8601;48.718;8.992;2022-08-01T02:39:20;3.57;;;2.70;;
16969;SDS011;8601;48.718;8.992;2022-08-01T02:41:50;3.30;;;2.30;;
16969;SDS011;8601;48.718;8.992;2022-08-01T02:44:23;2.60;;;2.33;;
16969;SDS011;8601;48.718;8.992;2022-08-01T02:46:56;3.63;;;3.33;;
16969;SDS011;8601;48.718;8.992;2022-08-01T02:49:27;4.63;;;2.80;;
16969;SDS011;8601;48.718;8.992;2022-08-01T02:51:57;2.97;;;2.67;;
16969;SDS011;8601;48.718;8.992;2022-08-01T02:54:26;3.00;;;2.70;;
16969;SDS011;8601;48.718;8.992;2022-08-01T02:56:55;2.80;;;2.57;;
16969;SDS011;8601;48.718;8.992;2022-08-01T02:59:23;3.43;;;2.73;;
16969;SDS011;8601;48.718;8.992;2022-08-01T03:01:53;4.00;;;2.70;;
16969;SDS011;8601;48.718;8.992;2022-08-01T03:04:23;3.70;;;3.10;;
16969;SDS011;8601;48.718;8.992;2022-08-01T03:06:51;3.27;;;2.77;;
16969;SDS011;8601;48.718;8.992;2022-08-01T03:09:22;2.93;;;2.60;;
16969;SDS011;8601;48.718;8.992;2022-08-01T03:11:50;3.00;;;2.80;;
16969;SDS011;8601;48.718;8.992;2022-08-01T03:14:19;2.90;;;2.70;;
16969;SDS011;8601;48.718;8.992;2022-08-01T03:16:49;3.17;;;2.57;;
16969;SDS011;8601;48.718;8.992;2022-08-01T03:19:20;3.60;;;2.63;;
16969;SDS011;8601;48.718;8.992;2022-08-01T03:21:52;4.00;;;3.07;;
16969;SDS011;8601;48.718;8.992;2022-08-01T03:24:23;2.63;;;2.20;;
16969;SDS011;8601;48.718;8.992;2022-08-01T03:26:53;3.60;;;2.80;;
16969;SDS011;8601;48.718;8.992;2022-08-01T03:29:24;2.80;;;2.60;;
16969;SDS011;8601;48.718;8.992;2022-08-01T03:31:54;2.97;;;2.67;;
16969;SDS011;8601;48.718;8.992;2022-08-01T03:34:24;3.80;;;2.67;;
16969;SDS011;8601;48.718;8.992;2022-08-01T03:36:53;2.90;;;2.70;;
16969;SDS011;8601;48.718;8.992;2022-08-01T03:39:27;3.10;;;2.90;;
16969;SDS011;8601;48.718;8.992;2022-08-01T03:41:59;3.00;;;2.60;;
16969;SDS011;8601;48.718;8.992;2022-08-01T03:44:32;3.27;;;2.97;;
16969;SDS011;8601;48.718;8.992;2022-08-01T03:47:04;3.33;;;3.03;;
16969;SDS011;8601;48.718;8.992;2022-08-01T03:49:35;3.13;;;2.70;;
16969;SDS011;8601;48.718;8.992;2022-08-01T03:52:07;4.57;;;3.20;;
16969;SDS011;8601;48.718;8.992;2022-08-01T03:54:37;3.00;;;2.70;;
16969;SDS011;8601;48.718;8.992;2022-08-01T03:57:07;4.73;;;2.90;;
16969;SDS011;8601;48.718;8.992;2022-08-01T03:59:36;3.10;;;2.80;;
16969;SDS011;8601;48.718;8.992;2022-08-01T04:02:05;2.93;;;2.73;;
16969;SDS011;8601;48.718;8.992;2022-08-01T04:04:34;3.27;;;3.07;;
16969;SDS011;8601;48.718;8.992;2022-08-01T04:07:01;3.00;;;2.70;;
16969;SDS011;8601;48.718;8.992;2022-08-01T04:09:32;4.63;;;2.90;;
16969;SDS011;8601;48.718;8.992;2022-08-01T04:12:00;4.93;;;2.87;;
16969;SDS011;8601;48.718;8.992;2022-08-01T04:14:27;4.90;;;2.77;;
16969;SDS011;8601;48.718;8.992;2022-08-01T04:16:54;3.10;;;2.70;;
16969;SDS011;8601;48.718;8.992;2022-08-01T04:19:22;3.20;;;2.93;;
16969;SDS011;8601;48.718;8.992;2022-08-01T04:21:50;6.23;;;3.10;;
16969;SDS011;8601;48.718;8.992;2022-08-01T04:24:19;3.07;;;2.77;;
16969;SDS011;8601;48.718;8.992;2022-08-01T04:26:48;3.23;;;2.93;;
16969;SDS011;8601;48.718;8.992;2022-08-01T04:29:19;3.37;;;2.90;;
16969;SDS011;8601;48.718;8.992;2022-08-01T04:31:49;3.27;;;2.90;;
16969;SDS011;8601;48.718;8.992;2022-08-01T04:34:20;4.73;;;2.83;;
16969;SDS011;8601;48.718;8.992;2022-08-01T04:36:48;3.00;;;2.77;;
16969;SDS011;8601;48.718;8.992;2022-08-01T04:39:20;3.30;;;3.00;;
16969;SDS011;8601;48.718;8.992;2022-08-01T04:41:52;4.43;;;3.10;;
16969;SDS011;8601;48.718;8.992;2022-08-01T04:44:22;3.50;;;3.20;;
16969;SDS011;8601;48.718;8.992;2022-08-01T04:46:49;3.87;;;3.00;;
16969;SDS011;8601;48.718;8.992;2022-08-01T04:49:19;3.87;;;3.10;;
16969;SDS011;8601;48.718;8.992;2022-08-01T04:51:51;3.60;;;3.20;;
16969;SDS011;8601;48.718;8.992;2022-08-01T04:54:22;3.90;;;3.00;;
16969;SDS011;8601;48.718;8.992;2022-08-01T04:56:50;4.40;;;3.20;;
16969;SDS011;8601;48.718;8.992;2022-08-01T04:59:18;3.40;;;3.10;;
16969;SDS011;8601;48.718;8.992;2022-08-01T05:02:02;3.80;;;3.10;;
16969;SDS011;8601;48.718;8.992;2022-08-01T05:04:30;3.77;;;3.17;;
16969;SDS011;8601;48.718;8.992;2022-08-01T05:06:58;3.67;;;3.37;;
16969;SDS011;8601;48.718;8.992;2022-08-01T05:09:25;5.67;;;3.37;;
16969;SDS011;8601;48.718;8.992;2022-08-01T05:11:53;3.43;;;3.13;;
16969;SDS011;8601;48.718;8.992;2022-08-01T05:14:23;3.50;;;3.00;;
16969;SDS011;8601;48.718;8.992;2022-08-01T05:16:50;3.40;;;3.10;;
16969;SDS011;8601;48.718;8.992;2022-08-01T05:19:17;5.00;;;3.03;;
16969;SDS011;8601;48.718;8.992;2022-08-01T05:21:46;3.47;;;3.17;;
16969;SDS011;8601;48.718;8.992;2022-08-01T05:24:15;3.33;;;3.03;;
16969;SDS011;8601;48.718;8.992;2022-08-01T05:26:42;3.73;;;2.80;;
16969;SDS011;8601;48.718;8.992;2022-08-01T05:29:09;4.77;;;3.50;;
16969;SDS011;8601;48.718;8.992;2022-08-01T05:31:37;3.40;;;3.10;;
16969;SDS011;8601;48.718;8.992;2022-08-01T05:34:04;6.57;;;3.40;;
16969;SDS011;8601;48.718;8.992;2022-08-01T05:36:31;5.67;;;3.57;;
16969;SDS011;8601;48.718;8.992;2022-08-01T05:38:58;4.40;;;3.33;;
16969;SDS011;8601;48.718;8.992;2022-08-01T05:41:27;4.73;;;3.50;;
16969;SDS011;8601;48.718;8.992;2022-08-01T05:43:54;4.93;;;3.40;;
16969;SDS011;8601;48.718;8.992;2022-08-01T05:46:21;4.30;;;2.97;;
16969;SDS011;8601;48.718;8.992;2022-08-01T05:48:50;4.07;;;3.67;;
16969;SDS011;8601;48.718;8.992;2022-08-01T05:51:17;4.23;;;3.07;;
16969;SDS011;8601;48.718;8.992;2022-08-01T05:53:44;6.30;;;3.33;;
16969;SDS011;8601;48.718;8.992;2022-08-01T05:56:12;3.60;;;3.27;;
16969;SDS011;8601;48.718;8.992;2022-08-01T05:58:41;3.70;;;3.30;;
16969;SDS011;8601;48.718;8.992;2022-08-01T06:01:08;4.57;;;3.27;;
16969;SDS011;8601;48.718;8.992;2022-08-01T06:03:35;5.90;;;3.30;;
16969;SDS011;8601;48.718;8.992;2022-08-01T06:06:02;6.80;;;3.37;;
16969;SDS011;8601;48.718;8.992;2022-08-01T06:08:30;4.83;;;3.20;;
16969;SDS011;8601;48.718;8.992;2022-08-01T06:10:57;5.30;;;3.07;;
16969;SDS011;8601;48.718;8.992;2022-08-01T06:13:25;3.63;;;3.00;;
16969;SDS011;8601;48.718;8.992;2022-08-01T06:15:53;4.83;;;2.93;;
16969;SDS011;8601;48.718;8.992;2022-08-01T06:18:20;5.93;;;3.10;;
16969;SDS011;8601;48.718;8.992;2022-08-01T06:20:48;3.63;;;2.90;;
16969;SDS011;8601;48.718;8.992;2022-08-01T06:23:16;9.67;;;3.57;;
16969;SDS011;8601;48.718;8.992;2022-08-01T06:25:44;4.87;;;2.90;;
16969;SDS011;8601;48.718;8.992;2022-08-01T06:28:11;6.57;;;3.17;;
16969;SDS011;8601;48.718;8.992;2022-08-01T06:30:37;4.87;;;2.70;;
16969;SDS011;8601;48.718;8.992;2022-08-01T06:33:06;2.90;;;2.60;;
16969;SDS011;8601;48.718;8.992;2022-08-01T06:35:33;5.23;;;2.90;;
16969;SDS011;8601;48.718;8.992;2022-08-01T06:38:01;5.07;;;2.50;;
16969;SDS011;8601;48.718;8.992;2022-08-01T06:40:29;3.47;;;2.53;;
16969;SDS011;8601;48.718;8.992;2022-08-01T06:42:55;6.87;;;3.03;;
16969;SDS011;8601;48.718;8.992;2022-08-01T06:45:23;5.37;;;2.53;;
16969;SDS011;8601;48.718;8.992;2022-08-01T06:47:51;4.60;;;2.60;;
16969;SDS011;8601;48.718;8.992;2022-08-01T06:50:26;5.00;;;2.30;;
16969;SDS011;8601;48.718;8.992;2022-08-01T06:52:54;4.90;;;2.23;;
16969;SDS011;8601;48.718;8.992;2022-08-01T06:55:20;4.20;;;2.10;;
16969;SDS011;8601;48.718;8.992;2022-08-01T06:57:49;6.93;;;1.97;;
16969;SDS011;8601;48.718;8.992;2022-08-01T07:00:18;4.30;;;2.23;;
16969;SDS011;8601;48.718;8.992;2022-08-01T07:02:47;2.83;;;1.63;;
16969;SDS011;8601;48.718;8.992;2022-08-01T07:05:14;1.67;;;1.50;;
16969;SDS011;8601;48.718;8.992;2022-08-01T07:07:43;3.57;;;1.50;;
16969;SDS011;8601;48.718;8.992;2022-08-01T07:10:10;3.40;;;1.97;;
16969;SDS011;8601;48.718;8.992;2022-08-01T07:12:37;5.20;;;2.10;;
16969;SDS011;8601;48.718;8.992;2022-08-01T07:15:06;4.30;;;2.03;;
16969;SDS011;8601;48.718;8.992;2022-08-01T07:17:36;3.13;;;1.90;;
16969;SDS011;8601;48.718;8.992;2022-08-01T07:20:04;3.57;;;2.03;;
16969;SDS011;8601;48.718;8.992;2022-08-01T07:22:33;4.97;;;2.07;;
16969;SDS011;8601;48.718;8.992;2022-08-01T07:25:01;5.97;;;2.40;;
16969;SDS011;8601;48.718;8.992;2022-08-01T07:27:28;3.40;;;1.80;;
16969;SDS011;8601;48.718;8.992;2022-08-01T07:29:55;3.47;;;1.70;;
16969;SDS011;8601;48.718;8.992;2022-08-01T07:32:22;1.97;;;1.77;;
16969;SDS011;8601;48.718;8.992;2022-08-01T07:34:49;2.17;;;1.73;;
16969;SDS011;8601;48.718;8.992;2022-08-01T07:37:16;3.67;;;1.80;;
16969;SDS011;8601;48.718;8.992;2022-08-01T07:39:43;2.17;;;1.90;;
16969;SDS011;8601;48.718;8.992;2022-08-01T07:42:11;1.70;;;1.60;;
16969;SDS011;8601;48.718;8.992;2022-08-01T07:44:39;1.80;;;1.70;;
16969;SDS011;8601;48.718;8.992;2022-08-01T07:47:06;2.20;;;2.00;;
16969;SDS011;8601;48.718;8.992;2022-08-01T07:49:34;3.33;;;2.10;;
16969;SDS011;8601;48.718;8.992;2022-08-01T07:52:01;2.83;;;2.00;;
16969;SDS011;8601;48.718;8.992;2022-08-01T07:54:28;2.23;;;2.03;;
16969;SDS011;8601;48.718;8.992;2022-08-01T07:56:55;2.10;;;2.00;;
16969;SDS011;8601;48.718;8.992;2022-08-01T07:59:23;2.50;;;1.80;;
16969;SDS011;8601;48.718;8.992;2022-08-01T08:01:51;2.17;;;1.97;;
16969;SDS011;8601;48.718;8.992;2022-08-01T08:04:18;2.90;;;2.23;;
16969;SDS011;8601;48.718;8.992;2022-08-01T08:06:45;2.00;;;1.90;;
16969;SDS011;8601;48.718;8.992;2022-08-01T08:09:14;2.03;;;1.93;;
16969;SDS011;8601;48.718;8.992;2022-08-01T08:11:41;3.03;;;1.83;;
16969;SDS011;8601;48.718;8.992;2022-08-01T08:14:10;2.33;;;1.93;;
16969;SDS011;8601;48.718;8.992;2022-08-01T08:16:39;3.60;;;3.30;;
16969;SDS011;8601;48.718;8.992;2022-08-01T08:19:06;2.13;;;2.03;;
16969;SDS011;8601;48.718;8.992;2022-08-01T08:21:33;2.33;;;2.13;;
16969;SDS011;8601;48.718;8.992;2022-08-01T08:24:00;2.20;;;2.00;;
16969;SDS011;8601;48.718;8.992;2022-08-01T08:26:44;2.70;;;2.10;;
16969;SDS011;8601;48.718;8.992;2022-08-01T08:29:11;2.50;;;2.30;;
16969;SDS011;8601;48.718;8.992;2022-08-01T08:31:41;2.50;;;2.17;;
16969;SDS011;8601;48.718;8.992;2022-08-01T08:34:08;2.80;;;2.60;;
16969;SDS011;8601;48.718;8.992;2022-08-01T08:36:36;2.40;;;2.20;;
16969;SDS011;8601;48.718;8.992;2022-08-01T08:39:03;3.23;;;2.93;;
16969;SDS011;8601;48.718;8.992;2022-08-01T08:41:30;3.10;;;2.80;;
16969;SDS011;8601;48.718;8.992;2022-08-01T08:43:58;2.70;;;2.50;;
16969;SDS011;8601;48.718;8.992;2022-08-01T08:46:29;3.47;;;3.13;;
16969;SDS011;8601;48.718;8.992;2022-08-01T08:49:01;3.17;;;2.87;;
16969;SDS011;8601;48.718;8.992;2022-08-01T08:51:30;3.30;;;3.00;;
16969;SDS011;8601;48.718;8.992;2022-08-01T08:53:59;3.47;;;3.17;;
16969;SDS011;8601;48.718;8.992;2022-08-01T08:56:29;2.87;;;2.67;;
16969;SDS011;8601;48.718;8.992;2022-08-01T08:58:59;2.60;;;2.40;;
16969;SDS011;8601;48.718;8.992;2022-08-01T09:01:27;3.20;;;2.93;;
16969;SDS011;8601;48.718;8.992;2022-08-01T09:03:54;3.77;;;2.83;;
16969;SDS011;8601;48.718;8.992;2022-08-01T09:06:23;3.20;;;2.90;;
16969;SDS011;8601;48.718;8.992;2022-08-01T09:08:50;3.90;;;2.33;;
16969;SDS011;8601;48.718;8.992;2022-08-01T09:11:17;5.07;;;3.20;;
16969;SDS011;8601;48.718;8.992;2022-08-01T09:13:48;3.63;;;3.20;;
16969;SDS011;8601;48.718;8.992;2022-08-01T09:16:28;4.17;;;3.20;;
16969;SDS011;8601;48.718;8.992;2022-08-01T09:19:06;3.30;;;3.07;;
16969;SDS011;8601;48.718;8.992;2022-08-01T09:21:36;3.37;;;3.07;;
16969;SDS011;8601;48.718;8.992;2022-08-01T09:24:03;3.43;;;3.13;;
16969;SDS011;8601;48.718;8.992;2022-08-01T09:26:38;3.80;;;3.50;;
16969;SDS011;8601;48.718;8.992;2022-08-01T09:29:06;3.77;;;3.47;;
16969;SDS011;8601;48.718;8.992;2022-08-01T09:31:43;4.30;;;4.00;;
16969;SDS011;8601;48.718;8.992;2022-08-01T09:34:12;4.60;;;4.10;;
16969;SDS011;8601;48.718;8.992;2022-08-01T09:36:50;4.50;;;4.10;;
16969;SDS011;8601;48.718;8.992;2022-08-01T09:39:19;4.23;;;3.83;;
16969;SDS011;8601;48.718;8.992;2022-08-01T09:41:48;6.27;;;4.27;;
16969;SDS011;8601;48.718;8.992;2022-08-01T09:44:16;3.83;;;3.53;;
16969;SDS011;8601;48.718;8.992;2022-08-01T09:46:49;4.60;;;3.57;;
16969;SDS011;8601;48.718;8.992;2022-08-01T09:49:26;3.57;;;3.27;;
16969;SDS011;8601;48.718;8.992;2022-08-01T09:54:51;3.80;;;3.47;;
16969;SDS011;8601;48.718;8.992;2022-08-01T10:06:21;3.13;;;2.93;;
16969;SDS011;8601;48.718;8.992;2022-08-01T10:08:51;3.10;;;2.80;;
16969;SDS011;8601;48.718;8.992;2022-08-01T10:11:18;4.40;;;3.07;;
16969;SDS011;8601;48.718;8.992;2022-08-01T10:13:48;2.88;;;2.65;;
16969;SDS011;8601;48.718;8.992;2022-08-01T10:33:05;2.53;;;2.33;;
16969;SDS011;8601;48.718;8.992;2022-08-01T10:35:32;3.38;;;2.40;;
16969;SDS011;8601;48.718;8.992;2022-08-01T10:38:02;2.85;;;2.65;;
16969;SDS011;8601;48.718;8.992;2022-08-01T10:40:40;2.95;;;2.65;;
16969;SDS011;8601;48.718;8.992;2022-08-01T10:43:09;2.58;;;2.30;;
16969;SDS011;8601;48.718;8.992;2022-08-01T10:45:36;3.33;;;2.47;;
16969;SDS011;8601;48.718;8.992;2022-08-01T10:48:06;2.90;;;2.60;;
16969;SDS011;8601;48.718;8.992;2022-08-01T10:50:41;3.72;;;2.35;;
16969;SDS011;8601;48.718;8.992;2022-08-01T10:53:14;3.28;;;2.20;;
16969;SDS011;8601;48.718;8.992;2022-08-01T10:55:47;2.47;;;2.28;;
16969;SDS011;8601;48.718;8.992;2022-08-01T10:58:22;2.33;;;2.13;;
16969;SDS011;8601;48.718;8.992;2022-08-01T11:04:07;3.22;;;2.20;;
16969;SDS011;8601;48.718;8.992;2022-08-01T11:06:54;3.10;;;2.25;;
16969;SDS011;8601;48.718;8.992;2022-08-01T11:09:40;2.83;;;2.05;;
16969;SDS011;8601;48.718;8.992;2022-08-01T11:12:16;2.13;;;2.00;;
16969;SDS011;8601;48.718;8.992;2022-08-01T11:17:56;1.98;;;1.88;;
16969;SDS011;8601;48.718;8.992;2022-08-01T11:20:25;3.30;;;2.38;;
16969;SDS011;8601;48.718;8.992;2022-08-01T11:26:16;2.53;;;2.30;;
16969;SDS011;8601;48.718;8.992;2022-08-01T11:28:45;2.20;;;2.00;;
16969;SDS011;8601;48.718;8.992;2022-08-01T11:31:28;2.42;;;2.22;;
16969;SDS011;8601;48.718;8.992;2022-08-01T11:33:56;2.35;;;2.15;;
16969;SDS011;8601;48.718;8.992;2022-08-01T11:36:24;2.45;;;1.92;;
16969;SDS011;8601;48.718;8.992;2022-08-01T11:41:51;2.63;;;2.05;;
16969;SDS011;8601;48.718;8.992;2022-08-01T11:44:23;1.95;;;1.85;;
16969;SDS011;8601;48.718;8.992;2022-08-01T11:46:59;2.53;;;2.10;;
16969;SDS011;8601;48.718;8.992;2022-08-01T11:49:30;2.38;;;2.00;;
16969;SDS011;8601;48.718;8.992;2022-08-01T11:52:26;2.10;;;2.00;;
16969;SDS011;8601;48.718;8.992;2022-08-01T11:54:54;3.25;;;2.17;;
16969;SDS011;8601;48.718;8.992;2022-08-01T11:57:25;2.40;;;2.20;;
16969;SDS011;8601;48.718;8.992;2022-08-01T11:59:57;3.13;;;2.10;;
16969;SDS011;8601;48.718;8.992;2022-08-01T12:02:25;2.58;;;2.33;;
16969;SDS011;8601;48.718;8.992;2022-08-01T12:04:54;2.17;;;2.05;;
16969;SDS011;8601;48.718;8.992;2022-08-01T12:07:23;2.22;;;2.08;;
16969;SDS011;8601;48.718;8.992;2022-08-01T12:10:01;3.03;;;2.40;;
16969;SDS011;8601;48.718;8.992;2022-08-01T12:12:30;2.78;;;2.58;;
16969;SDS011;8601;48.718;8.992;2022-08-01T12:15:13;2.20;;;1.98;;
16969;SDS011;8601;48.718;8.992;2022-08-01T12:17:41;2.50;;;2.30;;
16969;SDS011;8601;48.718;8.992;2022-08-01T12:20:10;3.05;;;2.03;;
16969;SDS011;8601;48.718;8.992;2022-08-01T12:22:39;2.42;;;2.22;;
16969;SDS011;8601;48.718;8.992;2022-08-01T12:25:07;2.13;;;1.92;;
16969;SDS011;8601;48.718;8.992;2022-08-01T12:27:35;2.35;;;2.10;;
16969;SDS011;8601;48.718;8.992;2022-08-01T12:30:04;2.72;;;2.00;;
16969;SDS011;8601;48.718;8.992;2022-08-01T12:32:34;3.70;;;1.83;;
16969;SDS011;8601;48.718;8.992;2022-08-01T12:35:04;3.60;;;2.10;;
16969;SDS011;8601;48.718;8.992;2022-08-01T12:37:32;3.28;;;2.10;;
16969;SDS011;8601;48.718;8.992;2022-08-01T12:40:02;2.75;;;2.08;;
16969;SDS011;8601;48.718;8.992;2022-08-01T12:42:36;2.25;;;1.63;;
16969;SDS011;8601;48.718;8.992;2022-08-01T12:45:05;2.13;;;2.00;;
16969;SDS011;8601;48.718;8.992;2022-08-01T12:47:35;2.05;;;1.80;;
16969;SDS011;8601;48.718;8.992;2022-08-01T12:50:05;2.13;;;1.77;;
16969;SDS011;8601;48.718;8.992;2022-08-01T12:52:33;2.17;;;1.90;;
16969;SDS011;8601;48.718;8.992;2022-08-01T12:55:05;2.28;;;2.08;;
16969;SDS011;8601;48.718;8.992;2022-08-01T12:57:35;2.20;;;2.00;;
16969;SDS011;8601;48.718;8.992;2022-08-01T13:00:11;2.50;;;2.20;;
16969;SDS011;8601;48.718;8.992;2022-08-01T13:02:44;1.92;;;1.80;;
16969;SDS011;8601;48.718;8.992;2022-08-01T13:05:13;2.92;;;1.92;;
16969;SDS011;8601;48.718;8.992;2022-08-01T13:07:45;2.15;;;1.95;;
16969;SDS011;8601;48.718;8.992;2022-08-01T13:10:15;1.90;;;1.52;;
16969;SDS011;8601;48.718;8.992;2022-08-01T13:12:52;2.83;;;2.00;;
16969;SDS011;8601;48.718;8.992;2022-08-01T13:15:25;3.28;;;2.00;;
16969;SDS011;8601;48.718;8.992;2022-08-01T13:17:58;2.10;;;1.90;;
16969;SDS011;8601;48.718;8.992;2022-08-01T13:20:27;1.77;;;1.67;;
16969;SDS011;8601;48.718;8.992;2022-08-01T13:23:09;2.25;;;1.85;;
16969;SDS011;8601;48.718;8.992;2022-08-01T13:25:46;2.45;;;1.77;;
16969;SDS011;8601;48.718;8.992;2022-08-01T13:28:14;1.88;;;1.77;;
16969;SDS011;8601;48.718;8.992;2022-08-01T13:30:50;2.05;;;1.90;;
16969;SDS011;8601;48.718;8.992;2022-08-01T13:33:19;2.83;;;2.13;;
16969;SDS011;8601;48.718;8.992;2022-08-01T13:35:46;2.20;;;2.00;;
16969;SDS011;8601;48.718;8.992;2022-08-01T13:38:15;2.67;;;2.20;;
16969;SDS011;8601;48.718;8.992;2022-08-01T13:40:42;5.10;;;2.13;;
16969;SDS011;8601;48.718;8.992;2022-08-01T13:43:09;2.25;;;2.00;;
16969;SDS011;8601;48.718;8.992;2022-08-01T13:45:36;4.07;;;1.88;;
16969;SDS011;8601;48.718;8.992;2022-08-01T13:48:04;4.55;;;2.17;;
16969;SDS011;8601;48.718;8.992;2022-08-01T13:50:33;2.30;;;1.65;;
16969;SDS011;8601;48.718;8.992;2022-08-01T13:53:00;2.85;;;1.95;;
16969;SDS011;8601;48.718;8.992;2022-08-01T13:55:27;2.40;;;2.20;;
16969;SDS011;8601;48.718;8.992;2022-08-01T13:57:54;2.60;;;2.03;;
16969;SDS011;8601;48.718;8.992;2022-08-01T14:00:21;2.20;;;2.00;;
16969;SDS011;8601;48.718;8.992;2022-08-01T14:02:49;2.22;;;2.03;;
16969;SDS011;8601;48.718;8.992;2022-08-01T14:05:16;2.28;;;2.00;;
16969;SDS011;8601;48.718;8.992;2022-08-01T14:07:44;3.08;;;2.42;;
16969;SDS011;8601;48.718;8.992;2022-08-01T14:10:12;5.07;;;2.20;;
16969;SDS011;8601;48.718;8.992;2022-08-01T14:12:39;4.05;;;2.20;;
16969;SDS011;8601;48.718;8.992;2022-08-01T14:15:06;2.60;;;2.13;;
16969;SDS011;8601;48.718;8.992;2022-08-01T14:17:34;2.30;;;2.10;;
16969;SDS011;8601;48.718;8.992;2022-08-01T14:20:01;1.98;;;1.80;;
16969;SDS011;8601;48.718;8.992;2022-08-01T14:22:30;3.70;;;2.08;;
16969;SDS011;8601;48.718;8.992;2022-08-01T14:24:58;2.33;;;2.13;;
16969;SDS011;8601;48.718;8.992;2022-08-01T14:27:26;2.13;;;1.88;;
16969;SDS011;8601;48.718;8.992;2022-08-01T14:29:55;2.60;;;2.10;;
16969;SDS011;8601;48.718;8.992;2022-08-01T14:32:22;2.13;;;1.92;;
16969;SDS011;8601;48.718;8.992;2022-08-01T14:34:49;2.20;;;1.95;;
16969;SDS011;8601;48.718;8.992;2022-08-01T14:37:17;1.95;;;1.85;;
16969;SDS011;8601;48.718;8.992;2022-08-01T14:39:44;2.33;;;1.67;;
16969;SDS011;8601;48.718;8.992;2022-08-01T14:42:12;1.63;;;1.50;;
16969;SDS011;8601;48.718;8.992;2022-08-01T14:44:39;3.10;;;2.00;;
16969;SDS011;8601;48.718;8.992;2022-08-01T14:47:06;3.15;;;1.77;;
16969;SDS011;8601;48.718;8.992;2022-08-01T14:49:33;1.75;;;1.65;;
16969;SDS011;8601;48.718;8.992;2022-08-01T14:52:00;3.03;;;2.05;;
16969;SDS011;8601;48.718;8.992;2022-08-01T14:54:27;2.83;;;1.92;;
16969;SDS011;8601;48.718;8.992;2022-08-01T14:56:54;2.63;;;1.90;;
16969;SDS011;8601;48.718;8.992;2022-08-01T14:59:23;2.47;;;2.03;;
16969;SDS011;8601;48.718;8.992;2022-08-01T15:01:50;3.05;;;1.88;;
16969;SDS011;8601;48.718;8.992;2022-08-01T15:04:17;3.65;;;1.98;;
16969;SDS011;8601;48.718;8.992;2022-08-01T15:06:44;3.72;;;1.90;;
16969;SDS011;8601;48.718;8.992;2022-08-01T15:09:12;1.88;;;1.77;;
16969;SDS011;8601;48.718;8.992;2022-08-01T15:11:39;1.85;;;1.70;;
16969;SDS011;8601;48.718;8.992;2022-08-01T15:14:07;3.10;;;1.88;;
16969;SDS011;8601;48.718;8.992;2022-08-01T15:16:53;2.03;;;1.90;;
16969;SDS011;8601;48.718;8.992;2022-08-01T15:19:20;1.83;;;1.73;;
16969;SDS011;8601;48.718;8.992;2022-08-01T15:21:47;2.95;;;2.20;;
16969;SDS011;8601;48.718;8.992;2022-08-01T15:24:15;2.53;;;2.00;;
16969;SDS011;8601;48.718;8.992;2022-08-01T15:26:42;1.67;;;1.58;;
16969;SDS011;8601;48.718;8.992;2022-08-01T15:29:09;2.70;;;1.88;;
16969;SDS011;8601;48.718;8.992;2022-08-01T15:31:38;1.98;;;1.85;;
16969;SDS011;8601;48.718;8.992;2022-08-01T15:34:07;2.05;;;1.73;;
16969;SDS011;8601;48.718;8.992;2022-08-01T15:36:34;1.67;;;1.58;;
16969;SDS011;8601;48.718;8.992;2022-08-01T15:39:01;2.08;;;1.80;;
16969;SDS011;8601;48.718;8.992;2022-08-01T15:41:28;4.60;;;2.10;;
16969;SDS011;8601;48.718;8.992;2022-08-01T15:43:55;1.92;;;1.70;;
16969;SDS011;8601;48.718;8.992;2022-08-01T15:46:22;2.70;;;1.73;;
16969;SDS011;8601;48.718;8.992;2022-08-01T15:48:49;1.83;;;1.70;;
16969;SDS011;8601;48.718;8.992;2022-08-01T15:51:18;2.72;;;1.83;;
16969;SDS011;8601;48.718;8.992;2022-08-01T15:53:46;1.95;;;1.52;;
16969;SDS011;8601;48.718;8.992;2022-08-01T15:56:12;2.63;;;1.70;;
16969;SDS011;8601;48.718;8.992;2022-08-01T15:58:40;1.83;;;1.73;;